createdAt,value
2023-01-23T00:01:08.162Z,47.25
2023-01-23T00:03:35.497Z,48.88
2023-01-23T00:06:09.056Z,48.15
2023-01-23T00:08:37.155Z,48.10
2023-01-23T00:11:09.162Z,49.65
2023-01-23T00:13:36.783Z,50.95
2023-01-23T00:16:12.260Z,46.65
2023-01-23T00:18:39.728Z,50.45
2023-01-23T00:21:08.796Z,50.08
2023-01-23T00:23:36.761Z,50.78
2023-01-23T00:26:05.791Z,49.75
2023-01-23T00:28:33.284Z,51.95
2023-01-23T00:31:06.054Z,48.58
2023-01-23T00:33:33.735Z,49.83
2023-01-23T00:36:01.354Z,48.55
2023-01-23T00:38:28.618Z,51.03
2023-01-23T00:40:56.456Z,50.15
2023-01-23T00:43:24.978Z,48.22
2023-01-23T00:45:52.404Z,51.13
2023-01-23T00:48:19.660Z,47.25
2023-01-23T00:50:47.428Z,50.15
2023-01-23T00:53:14.829Z,50.55
2023-01-23T00:55:42.488Z,49.38
2023-01-23T00:58:09.970Z,46.58
2023-01-23T01:00:38.997Z,54.97
2023-01-23T01:03:07.129Z,46.53
2023-01-23T01:05:35.562Z,50.70
2023-01-23T01:08:04.459Z,48.58
2023-01-23T01:10:33.045Z,48.15
2023-01-23T01:13:02.769Z,50.55
2023-01-23T01:15:30.327Z,51.13
2023-01-23T01:17:58.843Z,54.95
2023-01-23T01:20:27.509Z,49.33
2023-01-23T01:22:57.175Z,48.92
2023-01-23T01:25:24.916Z,52.95
2023-01-23T01:27:56.027Z,52.90
2023-01-23T01:30:25.390Z,47.83
2023-01-23T01:32:53.957Z,49.30
2023-01-23T01:35:21.893Z,48.45
2023-01-23T01:37:49.896Z,52.70
2023-01-23T01:40:25.424Z,52.08
2023-01-23T01:42:55.338Z,49.78
2023-01-23T01:46:00.091Z,54.67
2023-01-23T01:48:31.428Z,51.50
2023-01-23T01:51:00.014Z,53.25
2023-01-23T01:53:29.065Z,49.83
2023-01-23T01:55:57.899Z,51.87
2023-01-23T01:58:26.470Z,48.58
2023-01-23T02:00:54.351Z,51.38
2023-01-23T02:03:21.898Z,55.35
2023-01-23T02:05:50.086Z,51.17
2023-01-23T02:08:37.845Z,49.17
2023-01-23T02:11:06.245Z,50.08
2023-01-23T02:13:39.831Z,47.58
2023-01-23T02:16:13.999Z,54.30
2023-01-23T02:18:48.220Z,49.70
2023-01-23T02:21:20.821Z,49.88
2023-01-23T02:24:01.719Z,50.15
2023-01-23T02:26:32.995Z,47.33
2023-01-23T02:29:00.575Z,51.28
2023-01-23T02:31:32.852Z,52.08
2023-01-23T02:34:00.236Z,50.03
2023-01-23T02:36:30.500Z,50.90
2023-01-23T02:39:10.491Z,50.65
2023-01-23T02:41:44.542Z,49.05
2023-01-23T02:44:17.878Z,48.90
2023-01-23T02:46:51.447Z,52.15
2023-01-23T02:49:18.896Z,50.17
2023-01-23T02:51:46.261Z,50.38
2023-01-23T02:54:13.586Z,49.53
2023-01-23T02:56:42.289Z,49.83
2023-01-23T02:59:28.349Z,49.60
2023-01-23T03:01:56.144Z,52.80
2023-01-23T03:04:24.159Z,52.05
2023-01-23T03:06:51.497Z,53.50
2023-01-23T03:09:19.538Z,54.50
2023-01-23T03:11:47.412Z,52.47
2023-01-23T03:14:18.119Z,52.08
2023-01-23T03:16:51.555Z,52.35
2023-01-23T03:19:23.195Z,49.63
2023-01-23T03:21:51.536Z,53.40
2023-01-23T03:24:19.975Z,56.08
2023-01-23T03:26:48.740Z,49.95
2023-01-23T03:29:38.743Z,56.05
2023-01-23T03:32:07.487Z,53.90
2023-01-23T03:34:35.256Z,48.85
2023-01-23T03:37:03.406Z,52.90
2023-01-23T03:39:51.444Z,54.30
2023-01-23T03:42:20.442Z,48.13
2023-01-23T03:44:49.488Z,51.25
2023-01-23T03:47:16.799Z,53.85
2023-01-23T03:49:44.178Z,51.38
2023-01-23T03:52:11.568Z,52.15
2023-01-23T03:54:39.171Z,53.03
2023-01-23T03:57:09.564Z,49.15
2023-01-23T04:00:04.491Z,53.50
2023-01-23T04:03:04.050Z,50.42
2023-01-23T04:05:32.167Z,52.17
2023-01-23T04:08:00.870Z,50.10
2023-01-23T04:10:29.102Z,49.35
2023-01-23T04:13:03.524Z,50.80
2023-01-23T04:15:34.369Z,49.75
2023-01-23T04:18:05.080Z,46.65
2023-01-23T04:20:33.104Z,50.00
2023-01-23T04:23:00.385Z,50.58
2023-01-23T04:25:29.354Z,46.90
2023-01-23T04:27:56.947Z,47.53
2023-01-23T04:30:24.315Z,53.90
2023-01-23T04:32:52.560Z,49.95
2023-01-23T04:35:20.683Z,50.60
2023-01-23T04:37:48.163Z,52.72
2023-01-23T04:40:15.802Z,48.10
2023-01-23T04:42:53.136Z,46.53
2023-01-23T04:45:37.020Z,50.63
2023-01-23T04:48:25.260Z,47.33
2023-01-23T04:50:53.445Z,55.33
2023-01-23T04:53:20.726Z,53.30
2023-01-23T04:55:55.810Z,49.85
2023-01-23T04:58:23.445Z,51.55
2023-01-23T05:00:51.002Z,49.05
2023-01-23T05:03:24.598Z,53.90
2023-01-23T05:05:52.515Z,54.60
2023-01-23T05:08:19.801Z,52.92
2023-01-23T05:10:54.895Z,51.97
2023-01-23T05:13:22.732Z,60.55
2023-01-23T05:15:50.149Z,52.33
2023-01-23T05:18:17.874Z,51.78
2023-01-23T05:20:46.464Z,53.60
2023-01-23T05:23:13.828Z,53.60
2023-01-23T05:25:47.445Z,58.13
2023-01-23T05:28:15.007Z,58.03
2023-01-23T05:30:48.118Z,50.38
2023-01-23T05:33:25.571Z,52.38
2023-01-23T05:35:52.944Z,52.35
2023-01-23T05:38:20.263Z,54.65
2023-01-23T05:40:47.580Z,56.35
2023-01-23T05:43:15.385Z,56.08
2023-01-23T05:46:16.245Z,54.05
2023-01-23T05:48:51.547Z,54.97
2023-01-23T05:51:20.845Z,57.25
2023-01-23T05:53:48.808Z,53.58
2023-01-23T05:56:17.609Z,56.95
2023-01-23T05:59:05.451Z,52.63
2023-01-23T06:01:47.359Z,55.15
2023-01-23T06:04:33.545Z,52.20
2023-01-23T06:07:20.682Z,56.15
2023-01-23T06:09:52.149Z,55.30
2023-01-23T06:12:19.491Z,51.78
2023-01-23T06:14:47.695Z,49.40
2023-01-23T06:17:15.198Z,51.15
2023-01-23T06:19:43.123Z,49.70
2023-01-23T06:22:11.356Z,55.22
2023-01-23T06:24:56.802Z,46.72
2023-01-23T06:27:24.439Z,54.33
2023-01-23T06:29:52.527Z,52.72
2023-01-23T06:32:20.885Z,46.95
2023-01-23T06:34:49.257Z,49.25
2023-01-23T06:37:16.617Z,47.85
2023-01-23T06:39:45.233Z,44.95
2023-01-23T06:42:13.906Z,46.22
2023-01-23T06:44:45.836Z,45.97
2023-01-23T06:47:15.739Z,43.40
2023-01-23T06:49:45.357Z,48.20
2023-01-23T06:52:12.788Z,47.80
2023-01-23T06:54:43.728Z,43.08
2023-01-23T06:57:13.154Z,44.10
2023-01-23T06:59:40.847Z,45.83
2023-01-23T07:02:13.785Z,50.03
2023-01-23T07:04:51.653Z,48.50
2023-01-23T07:07:19.590Z,44.33
2023-01-23T07:09:48.975Z,52.03
2023-01-23T07:12:23.061Z,48.90
2023-01-23T07:14:50.409Z,45.53
2023-01-23T07:17:22.876Z,54.55
2023-01-23T07:19:51.674Z,52.92
2023-01-23T07:22:21.161Z,50.83
2023-01-23T07:24:48.826Z,48.25
2023-01-23T07:27:16.162Z,52.80
2023-01-23T07:29:43.741Z,49.67
2023-01-23T07:32:11.361Z,52.15
2023-01-23T07:34:38.839Z,52.03
2023-01-23T07:37:06.293Z,67.40
2023-01-23T07:39:33.698Z,62.70
2023-01-23T07:42:01.293Z,49.97
2023-01-23T07:44:29.398Z,48.70
2023-01-23T07:46:57.127Z,55.13
2023-01-23T07:49:24.462Z,48.53
2023-01-23T07:51:51.725Z,50.63
2023-01-23T07:54:19.085Z,48.10
2023-01-23T07:56:50.377Z,53.75
2023-01-23T07:59:17.834Z,56.67
2023-01-23T08:01:45.120Z,53.85
2023-01-23T08:04:12.427Z,51.38
2023-01-23T08:06:39.801Z,47.60
2023-01-23T08:09:07.428Z,46.03
2023-01-23T08:11:34.850Z,47.20
2023-01-23T08:14:02.280Z,46.85
2023-01-23T08:16:29.643Z,45.25
2023-01-23T08:18:57.251Z,44.55
2023-01-23T08:21:24.900Z,50.22
2023-01-23T08:23:52.240Z,46.28
2023-01-23T08:26:19.523Z,46.88
2023-01-23T08:28:46.878Z,52.50
2023-01-23T08:31:15.706Z,48.05
2023-01-23T08:33:43.071Z,54.05
2023-01-23T08:36:15.265Z,52.95
2023-01-23T08:38:43.001Z,49.95
2023-01-23T08:41:11.804Z,54.45
2023-01-23T08:43:41.491Z,50.30
2023-01-23T08:46:09.256Z,52.58
2023-01-23T08:48:37.010Z,51.78
2023-01-23T08:51:07.132Z,49.65
2023-01-23T08:53:34.709Z,51.20
2023-01-23T08:56:07.289Z,51.80
2023-01-23T08:58:34.837Z,48.97
2023-01-23T09:01:02.520Z,55.55
2023-01-23T09:03:29.935Z,54.28
2023-01-23T09:06:01.714Z,48.97
2023-01-23T09:08:29.099Z,50.17
2023-01-23T09:11:07.205Z,51.17
2023-01-23T09:13:34.533Z,53.45
2023-01-23T09:16:02.020Z,53.35
2023-01-23T09:18:29.618Z,51.05
2023-01-23T09:20:57.037Z,51.22
2023-01-23T09:23:24.585Z,49.10
2023-01-23T09:25:52.145Z,48.38
2023-01-23T09:28:19.488Z,49.50
2023-01-23T09:30:47.224Z,50.30
2023-01-23T09:33:14.533Z,53.47
2023-01-23T09:35:41.971Z,51.65
2023-01-23T09:38:09.392Z,48.20
2023-01-23T09:40:50.242Z,45.58
2023-01-23T09:43:32.467Z,45.33
2023-01-23T09:46:11.955Z,51.35
2023-01-23T09:48:47.698Z,45.60
2023-01-23T09:51:21.039Z,50.63
2023-01-23T09:53:48.432Z,56.30
2023-01-23T09:56:21.777Z,45.13
2023-01-23T09:59:03.420Z,45.58
2023-01-23T10:01:31.421Z,45.63
2023-01-23T10:04:00.521Z,50.42
2023-01-23T10:06:30.553Z,49.42
2023-01-23T10:09:16.444Z,44.42
2023-01-23T10:11:49.835Z,46.65
2023-01-23T10:14:20.928Z,51.30
2023-01-23T10:17:27.638Z,49.90
2023-01-23T10:19:59.673Z,43.13
2023-01-23T10:22:36.256Z,46.35
2023-01-23T10:25:27.345Z,44.10
2023-01-23T10:28:00.843Z,44.33
2023-01-23T10:30:28.230Z,46.55
2023-01-23T10:32:58.966Z,51.22
2023-01-23T10:35:40.154Z,48.72
2023-01-23T10:38:48.984Z,45.10
2023-01-23T10:41:23.539Z,52.20
2023-01-23T10:43:53.566Z,47.67
2023-01-23T10:48:54.470Z,49.15
2023-01-23T10:51:27.063Z,46.95
2023-01-23T10:54:14.851Z,48.40
2023-01-23T10:57:03.133Z,44.35
2023-01-23T10:59:50.094Z,42.53
2023-01-23T11:02:22.253Z,39.22
2023-01-23T11:04:52.008Z,42.20
2023-01-23T11:07:31.195Z,43.85
2023-01-23T11:10:25.992Z,43.47
2023-01-23T11:12:55.261Z,45.28
2023-01-23T11:15:23.987Z,43.88
2023-01-23T11:17:52.611Z,47.00
2023-01-23T11:20:37.378Z,43.97
2023-01-23T11:23:06.037Z,43.67
2023-01-23T11:25:37.381Z,46.85
2023-01-23T11:28:27.431Z,45.50
2023-01-23T11:33:56.701Z,39.30
2023-01-23T11:36:36.242Z,41.97
2023-01-23T11:39:19.044Z,37.30
2023-01-23T11:41:47.011Z,39.28
2023-01-23T11:44:24.437Z,43.88
2023-01-23T11:47:21.216Z,37.38
2023-01-23T11:50:28.332Z,44.10
2023-01-23T11:53:09.947Z,42.80
2023-01-23T11:56:02.209Z,38.58
2023-01-23T11:59:02.229Z,41.42
2023-01-23T12:04:07.323Z,25.85
2023-01-23T12:06:47.469Z,31.60
2023-01-23T12:09:16.778Z,37.40
2023-01-23T12:12:14.969Z,39.42
2023-01-23T12:15:16.478Z,38.97
2023-01-23T12:18:17.901Z,32.72
2023-01-23T12:21:00.328Z,34.05
2023-01-23T12:23:48.245Z,35.90
2023-01-23T12:26:19.792Z,35.70
2023-01-23T12:29:06.505Z,34.17
2023-01-23T12:31:43.037Z,33.40
2023-01-23T12:34:25.573Z,32.90
2023-01-23T12:37:11.849Z,33.13
2023-01-23T12:39:58.951Z,29.48
2023-01-23T12:42:32.815Z,32.95
2023-01-23T12:45:01.728Z,33.47
2023-01-23T12:47:35.756Z,33.07
2023-01-23T12:50:13.546Z,40.95
2023-01-23T12:52:55.427Z,34.28
2023-01-23T12:55:33.220Z,34.22
2023-01-23T12:58:09.081Z,33.80
2023-01-23T13:01:01.553Z,35.22
2023-01-23T13:03:50.311Z,32.85
2023-01-23T13:06:24.930Z,31.40
2023-01-23T13:09:19.197Z,39.08
2023-01-23T13:12:22.280Z,33.38
2023-01-23T13:15:10.496Z,41.25
2023-01-23T13:18:01.884Z,40.38
2023-01-23T13:21:12.646Z,38.88
2023-01-23T13:23:40.120Z,35.05
2023-01-23T13:26:16.478Z,31.88
2023-01-23T13:28:46.423Z,33.28
2023-01-23T13:31:26.172Z,40.97
2023-01-23T13:34:06.654Z,36.92
2023-01-23T13:36:38.302Z,33.47
2023-01-23T13:39:29.642Z,30.77
2023-01-23T13:42:12.089Z,32.03
2023-01-23T13:45:17.789Z,39.08
2023-01-23T14:22:16.357Z,23.73
2023-01-23T14:24:45.613Z,22.95
2023-01-23T14:27:21.963Z,23.15
2023-01-23T14:30:14.269Z,20.85
2023-01-23T14:35:31.248Z,19.15
2023-01-23T14:38:05.645Z,22.88
2023-01-23T14:40:46.642Z,21.20
2023-01-23T14:43:21.919Z,26.42
2023-01-23T14:46:01.294Z,24.85
2023-01-23T14:48:29.176Z,24.63
2023-01-23T14:51:16.633Z,21.48
2023-01-23T14:53:51.386Z,18.63
2023-01-23T14:56:18.813Z,21.60
2023-01-23T14:58:46.735Z,15.07
2023-01-23T15:01:14.124Z,16.92
2023-01-23T15:03:55.788Z,14.43
2023-01-23T15:06:23.476Z,17.58
2023-01-23T15:08:51.402Z,19.00
2023-01-23T15:11:26.116Z,18.55
2023-01-23T15:13:55.697Z,20.38
2023-01-23T15:16:25.203Z,21.02
2023-01-23T15:19:01.641Z,20.40
2023-01-23T15:21:30.423Z,19.77
2023-01-23T15:24:05.812Z,20.00
2023-01-23T15:26:38.620Z,21.38
2023-01-23T15:29:08.958Z,23.60
2023-01-23T15:31:42.977Z,22.75
2023-01-23T15:34:16.824Z,23.35
2023-01-23T15:36:55.418Z,25.02
2023-01-23T15:39:29.149Z,24.80
2023-01-23T15:42:19.802Z,28.88
2023-01-23T15:44:47.215Z,23.73
2023-01-23T15:47:14.670Z,23.83
2023-01-23T15:49:42.044Z,23.35
2023-01-23T15:52:25.655Z,26.42
2023-01-23T15:54:55.504Z,22.40
2023-01-23T15:57:23.085Z,23.02
2023-01-23T15:59:50.455Z,26.90
2023-01-23T16:02:30.587Z,24.30
2023-01-23T16:05:00.893Z,25.17
2023-01-23T16:07:34.598Z,22.88
2023-01-23T16:10:16.166Z,23.98
2023-01-23T16:12:44.023Z,22.70
2023-01-23T16:15:22.680Z,22.98
2023-01-23T16:17:50.314Z,24.85
2023-01-23T16:20:20.310Z,21.65
2023-01-23T16:25:45.061Z,21.23
2023-01-23T16:28:14.199Z,24.33
2023-01-23T16:30:41.717Z,21.60
2023-01-23T16:33:09.520Z,23.30
2023-01-23T16:35:36.981Z,23.92
2023-01-23T16:38:05.465Z,26.75
2023-01-23T16:40:33.954Z,23.40
2023-01-23T16:43:02.987Z,23.80
2023-01-23T16:45:32.424Z,25.63
2023-01-23T16:47:59.753Z,23.90
2023-01-23T16:50:36.181Z,25.90
2023-01-23T16:53:07.441Z,22.88
2023-01-23T16:55:36.781Z,29.38
2023-01-23T16:58:05.305Z,25.15
2023-01-23T17:00:35.291Z,22.77
2023-01-23T17:03:06.539Z,25.23
2023-01-23T17:05:33.851Z,25.77
2023-01-23T17:08:13.464Z,25.63
2023-01-23T17:10:46.169Z,26.48
2023-01-23T17:13:16.176Z,30.50
2023-01-23T17:15:43.609Z,27.77
2023-01-23T17:18:21.346Z,26.17
2023-01-23T17:20:49.317Z,28.20
2023-01-23T17:23:16.665Z,27.70
2023-01-23T17:25:59.683Z,28.02
2023-01-23T17:28:28.162Z,26.27
2023-01-23T17:30:55.945Z,26.05
2023-01-23T17:33:26.206Z,28.02
2023-01-23T17:35:54.250Z,29.48
2023-01-23T17:38:31.923Z,26.60
2023-01-23T17:40:59.352Z,27.70
2023-01-23T17:43:26.819Z,29.85
2023-01-23T17:45:54.268Z,31.40
2023-01-23T17:48:30.989Z,25.30
2023-01-23T17:50:59.223Z,23.90
2023-01-23T17:53:27.923Z,24.30
2023-01-23T17:55:55.260Z,27.40
2023-01-23T17:58:23.514Z,25.63
2023-01-23T18:00:53.360Z,26.55
2023-01-23T18:05:49.315Z,21.90
2023-01-23T18:08:18.331Z,24.73
2023-01-23T18:10:46.770Z,26.45
2023-01-23T18:13:28.243Z,25.65
2023-01-23T18:16:14.172Z,31.13
2023-01-23T18:18:42.952Z,31.80
2023-01-23T18:21:17.980Z,33.63
2023-01-23T18:23:46.254Z,29.58
2023-01-23T18:26:25.571Z,36.33
2023-01-23T18:29:11.587Z,32.58
2023-01-23T18:32:04.544Z,31.85
2023-01-23T18:34:34.745Z,31.70
2023-01-23T18:37:04.933Z,31.73
2023-01-23T18:39:52.493Z,31.98
2023-01-23T18:42:35.697Z,30.67
2023-01-23T18:45:20.776Z,31.83
2023-01-23T18:47:54.500Z,35.95
2023-01-23T18:50:22.971Z,30.88
2023-01-23T18:53:12.653Z,29.67
2023-01-23T18:55:58.991Z,32.00
2023-01-23T18:59:11.997Z,30.85
2023-01-23T19:02:00.122Z,33.83
2023-01-23T19:04:34.527Z,31.70
2023-01-23T19:07:02.201Z,32.53
2023-01-23T19:09:33.900Z,33.58
2023-01-23T19:12:25.924Z,29.90
2023-01-23T19:15:04.503Z,31.83
2023-01-23T19:17:38.020Z,33.92
2023-01-23T19:20:28.849Z,33.60
2023-01-23T19:23:07.632Z,29.55
2023-01-23T19:25:35.385Z,31.30
2023-01-23T19:28:02.999Z,30.95
2023-01-23T19:30:30.794Z,30.25
2023-01-23T19:32:58.093Z,30.17
2023-01-23T19:35:25.444Z,27.48
2023-01-23T19:37:52.923Z,29.73
2023-01-23T19:40:20.448Z,30.42
2023-01-23T19:42:58.777Z,25.23
2023-01-23T19:45:33.818Z,28.70
2023-01-23T19:48:01.345Z,30.27
2023-01-23T19:50:28.589Z,30.65
2023-01-23T19:52:56.875Z,28.38
2023-01-23T19:55:33.513Z,25.98
2023-01-23T19:58:00.864Z,26.35
2023-01-23T20:00:31.018Z,28.77
2023-01-23T20:02:58.881Z,29.65
2023-01-23T20:05:26.627Z,28.98
2023-01-23T20:07:54.314Z,28.60
2023-01-23T20:10:22.419Z,26.38
2023-01-23T20:12:52.235Z,29.63
2023-01-23T20:15:22.483Z,27.30
2023-01-23T20:17:50.189Z,27.38
2023-01-23T20:20:17.655Z,24.60
2023-01-23T20:22:45.267Z,23.33
2023-01-23T20:25:14.516Z,25.38
2023-01-23T20:27:42.504Z,23.02
2023-01-23T20:30:15.668Z,25.13
2023-01-23T20:32:43.109Z,27.15
2023-01-23T20:35:10.686Z,24.17
2023-01-23T20:37:37.990Z,23.77
2023-01-23T20:40:05.932Z,25.90
2023-01-23T20:42:33.736Z,23.98
2023-01-23T20:45:01.006Z,25.70
2023-01-23T20:47:28.353Z,25.20
2023-01-23T20:49:55.747Z,28.27
2023-01-23T20:52:41.654Z,24.08
2023-01-23T20:55:09.681Z,27.33
2023-01-23T20:57:55.804Z,27.67
2023-01-23T21:00:23.155Z,25.17
2023-01-23T21:02:50.521Z,26.35
2023-01-23T21:05:18.371Z,26.30
2023-01-23T21:07:45.781Z,25.40
2023-01-23T21:10:13.168Z,24.17
2023-01-23T21:12:40.410Z,26.50
2023-01-23T21:15:08.496Z,27.20
2023-01-23T21:17:36.176Z,27.73
2023-01-23T21:20:03.788Z,27.52
2023-01-23T21:22:31.123Z,34.28
2023-01-23T21:24:58.525Z,30.20
2023-01-23T21:27:26.157Z,28.45
2023-01-23T21:29:53.491Z,26.77
2023-01-23T21:32:21.202Z,27.75
2023-01-23T21:34:48.425Z,28.05
2023-01-23T21:37:15.706Z,27.58
2023-01-23T21:39:42.959Z,27.20
2023-01-23T21:42:10.333Z,26.10
2023-01-23T21:44:37.665Z,25.40
2023-01-23T21:47:05.128Z,23.10
2023-01-23T21:49:32.392Z,25.65
2023-01-23T21:51:59.860Z,24.25
2023-01-23T21:54:27.186Z,22.80
2023-01-23T21:56:54.472Z,22.50
2023-01-23T21:59:21.766Z,25.08
2023-01-23T22:01:49.114Z,24.58
2023-01-23T22:04:18.585Z,24.63
2023-01-23T22:06:46.442Z,23.55
2023-01-23T22:09:17.917Z,22.33
2023-01-23T22:11:46.468Z,21.88
2023-01-23T22:14:14.202Z,21.10
2023-01-23T22:16:50.311Z,21.42
2023-01-23T22:19:24.870Z,22.63
2023-01-23T22:21:55.892Z,21.77
2023-01-23T22:24:23.776Z,22.13
2023-01-23T22:26:51.411Z,23.20
2023-01-23T22:29:18.819Z,25.10
2023-01-23T22:31:46.420Z,24.15
2023-01-23T22:34:14.099Z,22.08
2023-01-23T22:36:41.362Z,24.70
2023-01-23T22:39:08.593Z,23.45
2023-01-23T22:41:35.968Z,23.35
2023-01-23T22:44:03.355Z,25.27
2023-01-23T22:46:32.436Z,26.73
2023-01-23T22:48:59.757Z,29.15
2023-01-23T22:51:28.083Z,27.92
2023-01-23T22:53:56.408Z,27.85
2023-01-23T22:56:24.851Z,26.17
2023-01-23T22:58:53.413Z,24.58
2023-01-23T23:01:24.098Z,27.02
2023-01-23T23:03:51.867Z,26.35
2023-01-23T23:06:20.071Z,27.23
2023-01-23T23:08:48.105Z,22.85
2023-01-23T23:11:18.247Z,24.73
2023-01-23T23:16:18.927Z,27.63
2023-01-23T23:18:48.310Z,28.52
2023-01-23T23:21:18.803Z,26.85
2023-01-23T23:23:46.845Z,26.10
2023-01-23T23:26:14.428Z,27.15
2023-01-23T23:28:41.916Z,27.95
2023-01-23T23:31:10.074Z,27.80
2023-01-23T23:33:37.948Z,26.17
2023-01-23T23:36:05.755Z,29.30
2023-01-23T23:38:33.124Z,28.95
2023-01-23T23:41:05.391Z,30.05
2023-01-23T23:43:32.789Z,28.60
2023-01-23T23:46:02.175Z,30.02
2023-01-23T23:48:30.286Z,29.63
2023-01-23T23:51:04.013Z,25.52
2023-01-23T23:53:31.389Z,30.88
2023-01-23T23:55:58.630Z,28.60
2023-01-23T23:58:26.017Z,27.48
